Time;durP1;ratioP1;P1;durP2;ratioP2;P2;SDS_P1;SDS_P2;PMS_P1;PMS_P2;Temp;Humidity;BMP_temperature;BMP_pressure;BME280_temperature;BME280_humidity;BME280_pressure;Samples;Min_cycle;Max_cycle;Signal;HPM_P1;HPM_P2
2022/08/07 00:00:20;;;;;;;2.70;1.77;;;;;;;19.65;55.68;98684.41;4173077;28;20731;-85
2022/08/07 00:02:23;;;;;;;2.93;2.13;;;;;;;19.63;54.87;98689.03;4174807;28;20639;-84
2022/08/07 00:04:43;;;;;;;3.47;2.30;;;;;;;19.66;55.19;98681.63;4168851;28;20607;-85
2022/08/07 00:06:47;;;;;;;2.80;2.37;;;;;;;19.63;55.03;98686.38;4173034;28;20644;-85
2022/08/07 00:08:54;;;;;;;4.40;4.00;;;;;;;19.62;54.99;98679.41;4172201;28;20639;-86
2022/08/07 00:10:57;;;;;;;2.10;1.83;;;;;;;19.61;56.22;98689.19;4168362;28;20635;-85
2022/08/07 00:13:04;;;;;;;4.50;4.10;;;;;;;19.62;55.29;98680.28;4200861;28;21247;-85
2022/08/07 00:15:25;;;;;;;3.47;2.60;;;;;;;19.58;55.18;98686.81;4172237;28;20655;-85
2022/08/07 00:17:48;;;;;;;4.10;3.23;;;;;;;19.57;55.38;98687.78;4173234;28;20671;-85
2022/08/07 00:19:52;;;;;;;4.43;2.83;;;;;;;19.55;55.23;98684.47;4188293;28;21020;-85
2022/08/07 00:22:05;;;;;;;6.50;5.00;;;;;;;19.54;56.01;98682.78;4171014;28;20627;-85
2022/08/07 00:24:09;;;;;;;3.33;2.83;;;;;;;19.52;55.78;98689.22;4170129;28;20650;-85
2022/08/07 00:26:12;;;;;;;4.97;2.63;;;;;;;19.51;55.80;98679.59;4159593;28;20711;-85
2022/08/07 00:28:37;;;;;;;3.60;3.30;;;;;;;19.50;56.71;98684.09;4171567;28;20679;-85
2022/08/07 00:30:48;;;;;;;3.30;2.70;;;;;;;19.46;56.28;98684.50;4172007;28;20674;-85
2022/08/07 00:32:51;;;;;;;4.97;2.87;;;;;;;19.47;56.33;98680.91;4159124;28;20705;-85
2022/08/07 00:34:54;;;;;;;2.70;2.00;;;;;;;19.47;55.68;98681.72;4159083;28;20659;-85
2022/08/07 00:36:57;;;;;;;2.17;1.67;;;;;;;19.43;56.64;98685.63;4172991;28;21224;-85
2022/08/07 00:39:01;;;;;;;3.00;2.00;;;;;;;19.44;56.26;98689.13;4158805;28;20636;-85
2022/08/07 00:41:05;;;;;;;2.90;1.80;;;;;;;19.43;56.22;98682.97;4160956;28;20739;-85
2022/08/07 00:43:16;;;;;;;2.40;1.70;;;;;;;19.37;56.92;98691.50;4173309;28;20713;-84
2022/08/07 00:45:42;;;;;;;2.97;2.10;;;;;;;19.37;56.19;98685.38;4151900;28;20636;-84
2022/08/07 00:47:48;;;;;;;2.40;1.73;;;;;;;19.38;56.76;98692.34;4185596;28;21250;-84
2022/08/07 00:50:11;;;;;;;1.90;1.63;;;;;;;19.33;57.39;98680.53;4153666;28;20980;-84
2022/08/07 00:52:22;;;;;;;5.20;1.87;;;;;;;19.27;57.55;98691.69;4149672;28;20640;-85
2022/08/07 00:54:26;;;;;;;3.10;1.90;;;;;;;19.29;57.16;98693.22;4169469;28;20616;-85
2022/08/07 00:56:31;;;;;;;2.10;1.60;;;;;;;19.26;57.44;98692.66;4167276;28;21179;-84
2022/08/07 00:58:36;;;;;;;2.00;1.60;;;;;;;19.22;57.20;98691.28;4154012;28;20639;-84
2022/08/07 01:00:41;;;;;;;2.67;1.60;;;;;;;19.25;57.10;98702.41;4172088;28;20658;-84
2022/08/07 01:02:56;;;;;;;2.67;1.70;;;;;;;19.26;58.07;98703.22;4171757;28;20990;-85
2022/08/07 01:05:00;;;;;;;2.97;2.10;;;;;;;19.24;57.68;98694.59;4173768;28;20674;-85
2022/08/07 01:07:05;;;;;;;2.83;1.63;;;;;;;19.23;57.40;98692.94;4170650;28;20995;-84
2022/08/07 01:09:10;;;;;;;2.20;1.37;;;;;;;19.24;57.80;98694.59;4157532;28;20693;-85
2022/08/07 01:11:33;;;;;;;3.27;1.80;;;;;;;19.25;56.83;98705.03;4155515;28;21236;-84
2022/08/07 01:13:57;;;;;;;2.57;1.70;;;;;;;19.19;57.31;98696.84;4172010;28;20624;-85
2022/08/07 01:16:02;;;;;;;2.17;1.33;;;;;;;19.14;57.48;98704.38;4174940;28;20668;-85
2022/08/07 01:18:08;;;;;;;2.07;1.50;;;;;;;19.09;57.80;98694.25;4185200;28;20637;-85
2022/08/07 01:20:15;;;;;;;2.63;1.40;;;;;;;19.13;57.96;98692.13;4155049;28;20636;-84
2022/08/07 01:22:22;;;;;;;1.83;1.57;;;;;;;19.10;58.05;98687.13;4178801;28;20674;-84
2022/08/07 01:24:32;;;;;;;2.33;1.73;;;;;;;19.06;58.22;98683.09;4201788;28;20626;-85
2022/08/07 01:26:37;;;;;;;2.53;1.60;;;;;;;19.03;58.08;98686.03;4154014;28;20650;-85
2022/08/07 01:28:42;;;;;;;2.50;1.60;;;;;;;18.92;58.36;98681.69;4150610;28;20692;-84
2022/08/07 01:30:54;;;;;;;2.23;1.60;;;;;;;18.92;58.27;98684.34;4168613;28;21133;-85
2022/08/07 01:32:59;;;;;;;2.10;1.70;;;;;;;18.91;58.43;98674.75;4180958;28;21220;-85
2022/08/07 01:35:07;;;;;;;2.13;1.60;;;;;;;18.85;58.59;98673.63;4152678;28;20771;-85
2022/08/07 01:37:15;;;;;;;2.30;1.60;;;;;;;18.86;58.41;98678.78;4156742;28;21206;-85
2022/08/07 01:39:22;;;;;;;2.20;1.63;;;;;;;18.78;58.47;98680.44;4157248;28;20635;-84
2022/08/07 01:41:37;;;;;;;2.70;1.50;;;;;;;18.82;58.82;98679.22;4157041;28;20627;-85
2022/08/07 01:43:43;;;;;;;2.27;1.70;;;;;;;18.84;58.74;98690.47;4156522;28;20658;-85
2022/08/07 01:45:47;;;;;;;2.23;1.77;;;;;;;18.85;58.85;98697.44;4154956;28;20655;-85
2022/08/07 01:47:57;;;;;;;7.07;1.60;;;;;;;18.74;58.82;98685.19;4173190;28;20659;-85
2022/08/07 01:50:21;;;;;;;2.13;1.67;;;;;;;18.76;59.36;98693.00;4173639;28;21071;-85
2022/08/07 01:52:33;;;;;;;3.00;1.80;;;;;;;18.78;59.53;98683.94;4168879;28;20638;-85
2022/08/07 01:54:40;;;;;;;2.00;1.70;;;;;;;18.80;59.34;98683.81;4173017;28;20713;-85
2022/08/07 01:56:51;;;;;;;4.00;1.90;;;;;;;18.81;59.25;98683.66;4168600;28;21209;-85
2022/08/07 01:58:59;;;;;;;3.67;1.97;;;;;;;18.80;59.51;98679.34;4153835;28;20660;-85
2022/08/07 02:01:04;;;;;;;2.20;1.57;;;;;;;18.80;59.76;98687.28;4168420;28;20620;-84
2022/08/07 02:03:14;;;;;;;4.90;1.60;;;;;;;18.79;60.44;98682.97;4155864;28;21149;-85
2022/08/07 02:05:31;;;;;;;4.13;1.90;;;;;;;18.75;59.67;98681.59;4170621;28;20635;-85
2022/08/07 02:07:52;;;;;;;2.27;1.83;;;;;;;18.71;60.45;98674.91;4169537;28;20675;-85
2022/08/07 02:10:07;;;;;;;2.23;1.80;;;;;;;18.71;60.24;98682.84;4201551;28;20625;-85
2022/08/07 02:12:17;;;;;;;2.47;1.97;;;;;;;18.68;60.52;98680.47;4172203;28;20631;-85
2022/08/07 02:14:27;;;;;;;2.73;1.70;;;;;;;18.65;59.80;98680.75;4192344;28;20616;-85
2022/08/07 02:16:49;;;;;;;4.10;1.90;;;;;;;18.62;59.88;98678.38;4201001;28;21075;-85
2022/08/07 02:18:56;;;;;;;2.10;1.90;;;;;;;18.62;60.38;98675.75;4170854;28;20636;-85
2022/08/07 02:21:03;;;;;;;1.90;1.70;;;;;;;18.59;60.88;98678.66;4187887;28;20698;-85
2022/08/07 02:23:09;;;;;;;3.27;2.00;;;;;;;18.53;60.17;98676.56;4154033;28;20802;-84
2022/08/07 02:25:18;;;;;;;2.13;1.60;;;;;;;18.44;60.87;98666.84;4170943;28;20669;-85
2022/08/07 02:27:32;;;;;;;2.37;1.90;;;;;;;18.40;60.39;98672.53;4152918;28;20632;-84
2022/08/07 02:29:38;;;;;;;2.73;2.00;;;;;;;18.32;61.33;98661.84;4171725;28;20672;-84
2022/08/07 02:32:01;;;;;;;2.60;1.70;;;;;;;18.37;60.82;98659.59;4154249;28;21214;-84
2022/08/07 02:34:06;;;;;;;2.80;2.00;;;;;;;18.38;60.52;98656.00;4171978;28;20622;-85
2022/08/07 02:36:26;;;;;;;3.30;2.07;;;;;;;18.38;60.37;98655.19;4188100;28;20630;-85
2022/08/07 02:38:40;;;;;;;2.83;1.97;;;;;;;18.37;60.52;98658.78;4186531;28;21063;-84
2022/08/07 02:41:03;;;;;;;2.33;1.67;;;;;;;18.37;61.38;98653.50;4170053;28;20719;-84
2022/08/07 02:43:09;;;;;;;2.67;1.83;;;;;;;18.36;60.68;98646.53;4167973;28;20612;-84
2022/08/07 02:45:15;;;;;;;2.50;1.57;;;;;;;18.37;61.07;98658.78;4153931;28;20627;-85
2022/08/07 02:47:39;;;;;;;2.53;1.90;;;;;;;18.39;61.31;98657.69;4154941;28;20746;-85
2022/08/07 02:49:52;;;;;;;2.77;1.87;;;;;;;18.32;61.61;98656.56;4157952;28;20710;-84
2022/08/07 02:52:05;;;;;;;3.00;2.07;;;;;;;18.33;62.29;98657.38;4159949;28;20664;-84
2022/08/07 02:54:11;;;;;;;2.43;1.77;;;;;;;18.29;62.25;98661.28;4176097;28;21148;-84
2022/08/07 02:56:19;;;;;;;2.80;1.87;;;;;;;18.27;61.99;98652.69;4174859;28;20637;-85
2022/08/07 02:58:24;;;;;;;2.90;2.13;;;;;;;18.26;62.69;98645.72;4174037;28;20675;-84
2022/08/07 03:00:33;;;;;;;3.07;2.20;;;;;;;18.29;61.87;98648.09;4174334;28;20644;-84
2022/08/07 03:02:40;;;;;;;2.77;1.93;;;;;;;18.26;62.33;98651.00;4166135;28;21247;-84
2022/08/07 03:05:00;;;;;;;2.53;1.90;;;;;;;18.27;62.62;98647.41;4154692;28;21244;-85
2022/08/07 03:07:09;;;;;;;1.97;1.50;;;;;;;18.28;62.28;98655.19;4174084;28;21028;-86
2022/08/07 03:09:17;;;;;;;3.17;1.80;;;;;;;18.31;62.16;98651.41;4156751;28;20661;-85
2022/08/07 03:11:42;;;;;;;2.80;2.00;;;;;;;18.31;62.07;98649.63;4160339;28;20650;-85
2022/08/07 03:14:07;;;;;;;3.00;2.10;;;;;;;18.33;62.84;98641.53;4151082;28;21290;-85
2022/08/07 03:16:11;;;;;;;5.97;2.00;;;;;;;18.29;63.01;98645.44;4172687;28;21391;-85
2022/08/07 03:18:15;;;;;;;3.60;2.13;;;;;;;18.30;63.04;98645.31;4153230;28;20773;-85
2022/08/07 03:20:23;;;;;;;5.10;1.90;;;;;;;18.31;63.35;98644.34;4175183;28;20647;-85
2022/08/07 03:22:28;;;;;;;2.43;2.00;;;;;;;18.30;63.15;98644.47;4176247;28;21043;-84
2022/08/07 03:24:34;;;;;;;3.23;1.90;;;;;;;18.31;63.34;98654.91;4166569;28;21023;-85
2022/08/07 03:26:40;;;;;;;2.20;2.00;;;;;;;18.33;63.41;98658.22;4187795;28;20645;-85
2022/08/07 03:28:56;;;;;;;2.83;1.93;;;;;;;18.34;62.75;98661.69;4190828;28;20712;-85
2022/08/07 03:33:18;;;;;;;3.47;2.27;;;;;;;18.31;63.19;98659.34;4174330;28;20653;-84
2022/08/07 03:35:25;;;;;;;3.50;2.20;;;;;;;18.31;63.92;98659.34;4173056;28;20755;-85
2022/08/07 03:37:29;;;;;;;2.37;2.17;;;;;;;18.26;63.71;98667.66;4202847;28;20653;-85
2022/08/07 03:39:40;;;;;;;3.43;2.30;;;;;;;18.25;63.79;98675.72;4159723;28;20646;-85
2022/08/07 03:42:04;;;;;;;2.90;2.37;;;;;;;18.09;64.01;98672.78;4172093;28;20687;-85
2022/08/07 03:44:11;;;;;;;4.20;2.37;;;;;;;18.10;63.88;98675.28;4170487;28;20650;-85
2022/08/07 03:46:18;;;;;;;3.57;2.47;;;;;;;18.06;63.59;98670.41;4172639;28;20610;-85
2022/08/07 03:48:25;;;;;;;4.53;2.30;;;;;;;17.97;64.83;98665.94;4173305;28;20672;-85
2022/08/07 03:50:34;;;;;;;5.73;2.40;;;;;;;17.95;65.44;98667.88;4169929;28;20642;-85
2022/08/07 03:52:38;;;;;;;4.23;2.20;;;;;;;17.92;65.45;98667.31;4166743;28;20644;-85
2022/08/07 03:54:44;;;;;;;3.40;2.30;;;;;;;17.95;65.36;98667.88;4168015;28;20642;-85
2022/08/07 03:56:59;;;;;;;3.00;2.70;;;;;;;17.99;63.75;98669.28;4156584;28;20715;-85
2022/08/07 03:59:12;;;;;;;3.50;2.70;;;;;;;17.98;65.70;98665.81;4189576;28;21332;-85
2022/08/07 04:01:19;;;;;;;3.60;2.57;;;;;;;17.98;64.83;98672.88;4174274;28;20671;-84
2022/08/07 04:03:24;;;;;;;2.90;2.33;;;;;;;17.95;66.04;98667.88;4172133;28;20645;-85
2022/08/07 04:05:28;;;;;;;3.27;2.90;;;;;;;17.93;65.94;98659.25;4174236;28;20718;-85
2022/08/07 04:07:50;;;;;;;3.87;3.07;;;;;;;17.98;65.20;98662.31;4201645;28;21375;-85
2022/08/07 04:09:59;;;;;;;3.83;2.80;;;;;;;17.91;66.54;98663.84;4154906;28;20669;-85
2022/08/07 04:12:05;;;;;;;4.60;3.03;;;;;;;17.92;66.20;98663.72;4171993;28;20637;-85
2022/08/07 04:14:30;;;;;;;3.10;2.57;;;;;;;17.91;66.55;98663.84;4168924;28;20639;-85
2022/08/07 04:16:40;;;;;;;3.20;2.60;;;;;;;17.95;65.27;98670.50;4149756;28;20662;-85
2022/08/07 04:19:00;;;;;;;2.73;2.50;;;;;;;17.92;66.25;98673.44;4185333;28;20629;-85
2022/08/07 04:21:16;;;;;;;3.10;2.50;;;;;;;17.92;65.16;98672.59;4171374;28;20629;-85
2022/08/07 04:23:20;;;;;;;3.70;2.53;;;;;;;17.88;66.29;98677.31;4152518;28;20637;-84
2022/08/07 04:25:26;;;;;;;3.10;2.50;;;;;;;17.90;66.14;98683.28;4173888;28;20657;-85
2022/08/07 04:27:33;;;;;;;5.03;2.50;;;;;;;17.91;65.83;98681.50;4169145;28;20632;-85
2022/08/07 04:29:49;;;;;;;3.23;2.93;;;;;;;17.93;65.47;98683.00;4168657;28;20662;-85
2022/08/07 04:32:27;;;;;;;3.13;2.83;;;;;;;17.97;66.30;98682.59;4171720;28;20657;-85
2022/08/07 04:34:39;;;;;;;4.67;3.13;;;;;;;17.95;65.82;98686.34;4156610;28;20657;-84
2022/08/07 04:36:42;;;;;;;3.07;2.77;;;;;;;17.98;65.12;98691.34;4154009;28;21044;-85
2022/08/07 04:38:47;;;;;;;4.77;2.60;;;;;;;18.02;65.68;98693.59;4151849;28;20636;-85
2022/08/07 04:40:53;;;;;;;3.90;2.73;;;;;;;18.01;66.56;98693.72;4203687;28;20707;-85
2022/08/07 04:43:22;;;;;;;6.43;2.70;;;;;;;17.97;65.67;98702.91;4174577;28;20692;-85
2022/08/07 04:45:53;;;;;;;3.30;2.93;;;;;;;17.91;66.87;98702.63;4165889;28;20653;-85
2022/08/07 04:48:09;;;;;;;3.23;2.93;;;;;;;17.94;66.26;98701.34;4185918;28;20627;-85
2022/08/07 04:50:18;;;;;;;3.73;2.70;;;;;;;17.98;65.78;98701.91;4202476;28;20718;-86
2022/08/07 04:52:46;;;;;;;3.30;2.70;;;;;;;17.96;66.00;98699.41;4173082;28;20642;-85
2022/08/07 04:55:00;;;;;;;6.50;2.50;;;;;;;17.92;66.12;98700.66;4169257;28;21022;-85
2022/08/07 04:57:23;;;;;;;3.50;2.83;;;;;;;17.91;66.76;98698.16;4201084;28;20639;-85
2022/08/07 04:59:53;;;;;;;3.40;2.47;;;;;;;17.92;67.16;98693.72;4170222;28;20629;-85
2022/08/07 05:02:22;;;;;;;3.20;2.63;;;;;;;17.94;66.38;98708.44;4187730;28;20724;-86
2022/08/07 05:04:34;;;;;;;4.03;2.80;;;;;;;17.96;67.03;98702.03;4171336;28;21237;-85
2022/08/07 05:06:58;;;;;;;3.50;2.60;;;;;;;18.03;67.51;98707.66;4171933;28;20626;-85
2022/08/07 05:09:20;;;;;;;3.20;2.87;;;;;;;18.06;67.50;98704.72;4202157;28;20623;-85
2022/08/07 05:11:47;;;;;;;4.10;2.93;;;;;;;18.12;67.73;98705.03;4155929;28;20917;-85
2022/08/07 05:14:06;;;;;;;4.80;2.73;;;;;;;18.20;67.13;98715.75;4152645;28;20638;-85
2022/08/07 05:16:31;;;;;;;5.00;3.40;;;;;;;18.23;67.05;98710.19;4172670;28;20638;-85
2022/08/07 05:18:41;;;;;;;4.17;2.97;;;;;;;18.28;67.46;98712.44;4152481;28;20689;-86
2022/08/07 05:20:46;;;;;;;4.40;3.13;;;;;;;18.35;67.34;98703.00;4168072;28;21241;-85
2022/08/07 05:22:54;;;;;;;4.33;3.10;;;;;;;18.39;67.17;98718.44;4171339;28;21249;-84
2022/08/07 05:24:59;;;;;;;5.17;3.63;;;;;;;18.41;67.54;98719.94;4169224;28;21175;-85
2022/08/07 05:27:05;;;;;;;3.53;3.20;;;;;;;18.45;67.98;98724.00;4171853;28;20656;-85
2022/08/07 05:29:21;;;;;;;4.10;3.70;;;;;;;18.50;68.19;98716.50;4171366;28;20633;-85
2022/08/07 05:31:27;;;;;;;3.37;3.07;;;;;;;18.61;67.45;98720.81;4169471;28;20638;-85
2022/08/07 05:33:40;;;;;;;3.27;2.97;;;;;;;18.70;67.80;98717.34;4171738;28;20645;-85
2022/08/07 05:36:04;;;;;;;5.00;3.17;;;;;;;18.92;67.45;98726.63;4168566;28;21211;-85
2022/08/07 05:38:09;;;;;;;4.90;3.90;;;;;;;19.13;67.58;98729.16;4202780;28;20650;-85
2022/08/07 05:40:14;;;;;;;5.00;3.93;;;;;;;19.33;67.08;98730.78;4169888;28;20653;-86
2022/08/07 05:42:22;;;;;;;4.13;3.33;;;;;;;19.64;66.20;98736.53;4168951;28;20633;-85
2022/08/07 05:44:42;;;;;;;4.90;3.57;;;;;;;19.94;66.27;98742.44;4153897;28;21044;-85
2022/08/07 05:46:50;;;;;;;4.57;3.40;;;;;;;20.22;65.29;98743.25;4157675;28;20671;-85
2022/08/07 05:49:00;;;;;;;5.17;3.60;;;;;;;20.50;65.19;98743.91;4171426;28;20626;-86
2022/08/07 05:51:15;;;;;;;4.30;3.60;;;;;;;20.82;63.42;98741.59;4167304;28;20710;-85
2022/08/07 05:53:18;;;;;;;4.00;3.60;;;;;;;21.09;62.88;98741.53;4170408;28;20703;-85
2022/08/07 05:55:42;;;;;;;3.83;3.30;;;;;;;21.34;63.79;98737.06;4161706;28;20703;-85
2022/08/07 05:58:05;;;;;;;3.90;3.43;;;;;;;21.62;63.07;98746.59;4189094;28;20634;-85
2022/08/07 06:00:13;;;;;;;3.97;3.57;;;;;;;21.86;62.55;98749.34;4172156;28;20631;-85
2022/08/07 06:02:25;;;;;;;4.20;3.77;;;;;;;21.95;62.17;98753.72;4170878;28;20727;-86
2022/08/07 06:04:37;;;;;;;4.70;3.57;;;;;;;22.13;61.56;98743.84;4157367;28;21296;-85
2022/08/07 06:06:40;;;;;;;5.20;3.93;;;;;;;22.38;60.85;98760.59;4170239;28;21021;-86
2022/08/07 06:08:50;;;;;;;4.13;3.73;;;;;;;22.62;60.69;98759.84;4169964;28;20639;-86
2022/08/07 06:10:58;;;;;;;4.47;3.90;;;;;;;22.82;60.02;98765.53;4171104;28;20689;-85
2022/08/07 06:13:06;;;;;;;4.63;3.13;;;;;;;22.87;60.55;98759.72;4145841;28;21034;-86
2022/08/07 06:15:16;;;;;;;4.80;3.40;;;;;;;23.13;59.91;98771.09;4179604;28;20637;-85
2022/08/07 06:17:23;;;;;;;4.33;3.90;;;;;;;23.32;60.15;98763.59;4169815;28;20654;-86
2022/08/07 06:19:38;;;;;;;5.10;4.07;;;;;;;23.47;59.62;98759.22;4204678;28;21043;-85
2022/08/07 06:22:02;;;;;;;3.50;3.00;;;;;;;23.79;59.62;98773.38;4169493;28;20722;-86
2022/08/07 06:24:26;;;;;;;4.57;3.27;;;;;;;24.06;58.64;98767.66;4159624;28;21078;-86
2022/08/07 06:26:49;;;;;;;4.60;3.97;;;;;;;24.27;58.09;98771.41;4157936;28;20635;-86
2022/08/07 06:28:54;;;;;;;3.53;3.20;;;;;;;24.46;57.75;98766.50;4156875;28;21048;-86
2022/08/07 06:30:59;;;;;;;3.97;3.47;;;;;;;24.73;56.94;98772.19;4169397;28;20665;-84
2022/08/07 06:33:04;;;;;;;4.03;3.30;;;;;;;24.82;56.88;98768.47;4173511;28;20638;-83
2022/08/07 06:35:13;;;;;;;4.63;2.90;;;;;;;24.85;56.82;98767.25;4189779;28;20621;-84
2022/08/07 06:37:21;;;;;;;3.40;3.10;;;;;;;24.91;56.68;98764.72;4176592;28;20965;-84
2022/08/07 06:39:24;;;;;;;3.40;3.07;;;;;;;25.14;56.63;98761.06;4175096;28;20737;-84
2022/08/07 06:41:52;;;;;;;3.30;3.00;;;;;;;25.31;55.92;98757.25;4177161;28;20801;-84
2022/08/07 06:44:23;;;;;;;4.00;3.10;;;;;;;25.57;55.40;98752.31;4176530;28;20647;-83
2022/08/07 06:46:29;;;;;;;3.97;3.17;;;;;;;25.64;55.13;98753.31;4174761;28;20685;-84
2022/08/07 06:48:38;;;;;;;4.00;3.10;;;;;;;25.82;54.54;98754.63;4176590;28;20680;-83
2022/08/07 06:50:48;;;;;;;3.20;2.80;;;;;;;25.94;55.05;98753.16;4160044;28;20747;-84
2022/08/07 06:52:55;;;;;;;3.47;2.80;;;;;;;26.06;54.72;98753.53;4173109;28;20688;-84
2022/08/07 06:55:02;;;;;;;3.43;2.73;;;;;;;26.09;54.26;98741.41;4176647;28;20730;-84
2022/08/07 06:57:26;;;;;;;6.80;2.90;;;;;;;26.33;53.90;98751.88;4172549;28;20641;-84
2022/08/07 06:59:47;;;;;;;3.30;2.50;;;;;;;26.57;53.57;98752.38;4159085;28;20647;-84
2022/08/07 07:02:15;;;;;;;4.50;2.80;;;;;;;26.58;53.34;98754.03;4160649;28;20691;-83
2022/08/07 07:04:40;;;;;;;2.90;2.60;;;;;;;26.65;52.60;98751.44;4176550;28;20649;-83
2022/08/07 07:06:58;;;;;;;2.63;2.33;;;;;;;26.60;52.01;98757.34;4171484;28;20825;-83
2022/08/07 07:09:22;;;;;;;3.30;2.60;;;;;;;26.76;52.48;98745.56;4174044;28;20673;-83
2022/08/07 07:11:26;;;;;;;4.00;2.50;;;;;;;26.85;52.32;98739.94;4171017;28;20721;-83
2022/08/07 07:13:51;;;;;;;4.50;2.70;;;;;;;26.91;52.29;98746.38;4161193;28;20674;-84
2022/08/07 07:16:06;;;;;;;5.30;2.50;;;;;;;26.99;52.05;98741.75;4176119;28;20638;-84
2022/08/07 07:18:14;;;;;;;2.50;2.27;;;;;;;27.19;51.69;98743.56;4176255;28;20643;-83
2022/08/07 07:20:42;;;;;;;2.40;2.07;;;;;;;27.42;51.04;98743.38;4177223;28;20737;-84
2022/08/07 07:22:49;;;;;;;2.77;2.17;;;;;;;27.62;50.76;98756.78;4173186;28;21005;-84
2022/08/07 07:25:14;;;;;;;2.80;2.50;;;;;;;27.80;49.97;98749.06;4176961;28;20623;-84
2022/08/07 07:27:41;;;;;;;2.47;2.20;;;;;;;28.00;50.34;98750.03;4173730;28;20644;-83
2022/08/07 07:30:00;;;;;;;3.00;2.30;;;;;;;27.78;50.38;98756.47;4171091;28;20644;-83
2022/08/07 07:32:14;;;;;;;2.83;2.37;;;;;;;27.73;49.50;98736.63;4175538;28;20648;-84
2022/08/07 07:34:27;;;;;;;4.63;2.17;;;;;;;27.93;49.86;98756.38;4169797;28;20724;-85
2022/08/07 07:36:34;;;;;;;2.43;2.20;;;;;;;27.97;49.89;98744.22;4169820;28;20724;-84
2022/08/07 07:38:43;;;;;;;4.03;2.07;;;;;;;28.20;50.72;98751.00;4173736;28;20646;-84
2022/08/07 07:40:49;;;;;;;2.60;2.00;;;;;;;28.43;49.30;98752.34;4161764;28;20641;-84
2022/08/07 07:42:54;;;;;;;2.90;2.10;;;;;;;28.48;49.24;98744.53;4156103;28;20677;-85
2022/08/07 07:44:59;;;;;;;2.50;2.00;;;;;;;28.65;49.41;98746.63;4156218;28;20624;-84
2022/08/07 07:47:03;;;;;;;2.97;2.40;;;;;;;28.97;50.61;98745.91;4172354;28;20697;-86
2022/08/07 07:49:27;;;;;;;2.77;2.40;;;;;;;29.16;48.23;98739.75;4172775;28;21217;-86
2022/08/07 07:51:51;;;;;;;2.57;2.30;;;;;;;28.99;48.85;98739.31;4204420;28;20659;-81
2022/08/07 07:54:03;;;;;;;2.60;2.40;;;;;;;28.58;48.50;98735.06;4171896;28;21046;-84
2022/08/07 07:56:08;;;;;;;2.27;1.93;;;;;;;28.49;49.38;98740.78;4171212;28;21028;-85
2022/08/07 07:58:11;;;;;;;3.20;2.40;;;;;;;28.68;49.26;98727.47;4189540;28;21089;-84
2022/08/07 08:00:15;;;;;;;2.40;1.80;;;;;;;28.74;48.75;98729.34;4175627;28;20696;-86
2022/08/07 08:02:33;;;;;;;2.37;2.17;;;;;;;28.83;48.21;98728.13;4176753;28;20631;-85
2022/08/07 08:04:38;;;;;;;2.20;2.00;;;;;;;28.80;49.09;98725.03;4176028;28;20661;-86
2022/08/07 08:06:44;;;;;;;2.90;1.97;;;;;;;29.00;48.40;98721.31;4176193;28;20626;-85
2022/08/07 08:08:55;;;;;;;2.83;2.10;;;;;;;28.97;48.00;98728.97;4173776;28;20634;-83
2022/08/07 08:11:04;;;;;;;3.20;2.27;;;;;;;28.98;49.17;98714.53;4169977;28;20743;-83
2022/08/07 08:13:10;;;;;;;2.43;2.20;;;;;;;29.13;49.28;98713.28;4173819;28;20685;-83
2022/08/07 08:15:17;;;;;;;3.13;2.00;;;;;;;29.22;48.46;98715.56;4153574;28;20630;-83
2022/08/07 08:17:26;;;;;;;2.23;2.03;;;;;;;29.00;47.05;98714.13;4171488;28;20636;-84
2022/08/07 08:19:51;;;;;;;3.57;2.30;;;;;;;29.04;47.54;98709.97;4152512;28;21207;-84
2022/08/07 08:27:21;;;;;;;3.33;2.30;;;;;;;28.56;45.46;98698.69;4166670;28;20633;-83
2022/08/07 08:29:26;;;;;;;2.30;2.10;;;;;;;28.34;46.23;98709.75;4184399;28;20616;-83
2022/08/07 08:31:35;;;;;;;1.90;1.70;;;;;;;28.34;46.24;98699.00;4157410;28;20653;-83
2022/08/07 08:34:09;;;;;;;3.03;1.80;;;;;;;28.34;46.51;98704.38;4171750;28;20636;-83
2022/08/07 08:36:15;;;;;;;2.60;1.60;;;;;;;28.49;46.32;98706.72;4173229;28;20635;-84
2022/08/07 08:38:21;;;;;;;3.63;1.83;;;;;;;28.76;46.51;98700.44;4154013;28;21210;-84
2022/08/07 08:40:34;;;;;;;2.27;1.70;;;;;;;29.02;45.74;98701.28;4168503;28;20656;-84
2022/08/07 08:42:43;;;;;;;2.67;1.50;;;;;;;29.01;45.90;98704.19;4174542;28;20636;-83
2022/08/07 08:44:52;;;;;;;1.80;1.50;;;;;;;28.96;45.29;98701.28;4169430;28;20636;-83
2022/08/07 08:47:02;;;;;;;2.40;1.80;;;;;;;28.95;44.82;98699.63;4173440;28;20633;-84
2022/08/07 08:49:14;;;;;;;3.00;1.93;;;;;;;28.87;44.80;98704.34;4170338;28;20677;-83
2022/08/07 08:51:21;;;;;;;1.87;1.43;;;;;;;29.00;44.51;98702.50;4174646;28;21269;-83
2022/08/07 08:53:49;;;;;;;1.70;1.60;;;;;;;29.06;44.17;98691.78;4174371;28;20633;-83
2022/08/07 08:55:55;;;;;;;3.00;1.80;;;;;;;29.08;44.11;98689.72;4171518;28;20632;-84
2022/08/07 08:58:07;;;;;;;2.93;1.50;;;;;;;29.19;43.38;98699.84;4156997;28;20644;-83
2022/08/07 09:00:16;;;;;;;30.17;8.03;;;;;;;29.30;46.24;98690.38;4164872;28;20632;-83
2022/08/07 09:02:34;;;;;;;2.43;1.80;;;;;;;29.07;45.51;98693.41;4169664;28;20626;-83
2022/08/07 09:04:44;;;;;;;2.10;1.70;;;;;;;28.87;46.05;98690.91;4155701;28;20643;-84
2022/08/07 09:06:53;;;;;;;1.70;1.50;;;;;;;28.85;43.76;98684.94;4170705;28;20641;-83
2022/08/07 09:09:06;;;;;;;3.10;1.60;;;;;;;28.92;45.60;98688.47;4155542;28;21107;-83
2022/08/07 09:11:18;;;;;;;2.47;1.40;;;;;;;29.18;43.51;98678.53;4173150;28;20668;-83
2022/08/07 09:13:50;;;;;;;3.40;1.60;;;;;;;29.37;43.82;98686.63;4174287;28;20663;-83
2022/08/07 09:16:00;;;;;;;1.70;1.60;;;;;;;29.40;43.84;98677.34;4154805;28;20644;-83
2022/08/07 09:18:36;;;;;;;2.90;1.33;;;;;;;29.46;43.08;98684.59;4171960;28;20636;-84
2022/08/07 09:20:48;;;;;;;1.60;1.40;;;;;;;29.40;42.48;98678.16;4171676;28;21015;-83
2022/08/07 09:23:07;;;;;;;2.90;1.20;;;;;;;28.86;41.51;98678.53;4172472;28;20637;-83
2022/08/07 09:25:35;;;;;;;1.97;1.37;;;;;;;28.73;42.66;98670.44;4171722;28;20675;-83
2022/08/07 09:27:45;;;;;;;2.23;1.23;;;;;;;28.56;42.33;98678.00;4170137;28;21358;-83
2022/08/07 09:30:07;;;;;;;2.27;1.23;;;;;;;28.48;41.16;98663.09;4169339;28;21080;-83
2022/08/07 09:32:20;;;;;;;1.50;1.10;;;;;;;28.09;41.41;98679.91;4174588;28;20731;-84
2022/08/07 09:34:26;;;;;;;3.93;1.60;;;;;;;28.00;42.31;98678.38;4173818;28;20979;-83
2022/08/07 09:36:33;;;;;;;1.67;1.27;;;;;;;28.24;42.71;98674.41;4181314;28;20698;-83
2022/08/07 09:38:45;;;;;;;2.73;1.30;;;;;;;28.35;43.20;98671.94;4170335;28;20736;-83
2022/08/07 09:41:07;;;;;;;4.40;1.20;;;;;;;28.15;42.40;98689.03;4173059;28;20739;-83
2022/08/07 09:43:23;;;;;;;2.43;1.23;;;;;;;28.03;43.14;98672.63;4188874;28;20846;-83
2022/08/07 09:45:58;;;;;;;1.60;1.33;;;;;;;28.05;43.08;98675.94;4172219;28;21021;-83
2022/08/07 09:48:30;;;;;;;2.47;1.47;;;;;;;28.04;42.81;98666.25;4187427;28;21197;-83
2022/08/07 09:51:01;;;;;;;3.10;1.20;;;;;;;28.09;43.29;98669.16;4171890;28;21040;-83
2022/08/07 09:53:06;;;;;;;3.00;1.30;;;;;;;27.81;42.13;98664.88;4176063;28;20657;-83
2022/08/07 09:55:15;;;;;;;2.33;1.50;;;;;;;27.81;42.39;98653.31;4167291;28;20624;-83
2022/08/07 09:57:55;;;;;;;2.53;1.30;;;;;;;28.03;41.97;98659.19;4166953;28;20643;-83
2022/08/07 10:00:07;;;;;;;1.83;1.23;;;;;;;28.23;41.86;98644.03;4174206;28;20640;-83
2022/08/07 10:02:29;;;;;;;2.37;1.50;;;;;;;28.24;43.06;98656.44;4174967;28;20624;-83
2022/08/07 10:04:52;;;;;;;2.40;1.33;;;;;;;28.26;41.93;98649.00;4176197;28;20648;-83
2022/08/07 10:07:13;;;;;;;2.37;1.20;;;;;;;28.35;40.87;98653.16;4171785;28;20667;-83
2022/08/07 10:09:37;;;;;;;3.27;1.30;;;;;;;28.30;41.35;98639.53;4175319;28;20632;-83
2022/08/07 10:12:11;;;;;;;2.70;1.10;;;;;;;28.34;41.56;98643.47;4175091;28;20670;-84
2022/08/07 10:15:06;;;;;;;2.10;1.10;;;;;;;28.54;41.27;98622.84;4172844;28;20639;-84
2022/08/07 10:17:42;;;;;;;2.57;1.20;;;;;;;28.54;41.80;98626.34;4176821;28;20620;-84
2022/08/07 10:20:12;;;;;;;1.67;1.20;;;;;;;28.64;41.67;98620.56;4156515;28;20621;-82
2022/08/07 10:22:39;;;;;;;1.70;1.20;;;;;;;28.27;40.73;98628.38;4190709;28;20634;-84
2022/08/07 10:24:55;;;;;;;1.63;1.07;;;;;;;28.10;41.41;98617.16;4165691;28;20653;-84
2022/08/07 10:27:11;;;;;;;2.10;1.20;;;;;;;28.29;41.14;98620.94;4187414;28;20643;-84
2022/08/07 10:29:46;;;;;;;3.30;1.17;;;;;;;28.34;40.31;98611.25;4184656;28;20666;-83
2022/08/07 10:32:08;;;;;;;2.20;1.30;;;;;;;28.33;39.37;98633.75;4164919;28;21228;-83
2022/08/07 10:34:45;;;;;;;1.63;1.10;;;;;;;28.27;40.18;98606.91;4173694;28;20651;-86